createdAt,value
2023-03-31T00:01:08.323Z,99634.38
2023-03-31T00:03:38.712Z,99624.19
2023-03-31T00:06:06.327Z,99619.72
2023-03-31T00:08:36.940Z,99625.94
2023-03-31T00:11:07.422Z,99621.19
2023-03-31T00:13:36.617Z,99622.81
2023-03-31T00:16:08.699Z,99622.00
2023-03-31T00:18:37.092Z,99632.19
2023-03-31T00:21:08.375Z,99635.41
2023-03-31T00:23:35.538Z,99638.88
2023-03-31T00:26:02.484Z,99624.41
2023-03-31T00:28:29.537Z,99609.03
2023-03-31T00:31:02.259Z,99577.28
2023-03-31T00:33:29.863Z,99563.13
2023-03-31T00:35:57.864Z,99564.22
2023-03-31T00:38:24.778Z,99559.63
2023-03-31T00:40:53.808Z,99547.88
2023-03-31T00:43:38.233Z,99550.00
2023-03-31T00:46:30.970Z,99536.13
2023-03-31T00:48:58.737Z,99532.16
2023-03-31T00:51:30.141Z,99516.22
2023-03-31T00:54:02.253Z,99517.44
2023-03-31T00:56:34.842Z,99512.00
2023-03-31T00:59:04.997Z,99519.53
2023-03-31T01:01:32.196Z,99525.34
2023-03-31T01:03:59.333Z,99541.91
2023-03-31T01:06:30.791Z,99525.31
2023-03-31T01:08:58.238Z,99544.13
2023-03-31T01:11:27.670Z,99542.13
2023-03-31T01:13:56.824Z,99536.41
2023-03-31T01:16:23.829Z,99535.06
2023-03-31T01:18:51.195Z,99534.50
2023-03-31T01:21:57.053Z,99519.66
2023-03-31T01:24:53.502Z,99518.03
2023-03-31T01:27:28.165Z,99501.13
2023-03-31T01:30:16.830Z,99488.00
2023-03-31T01:33:23.677Z,99488.72
2023-03-31T01:36:09.161Z,99489.16
2023-03-31T01:38:45.239Z,99485.38
2023-03-31T01:41:37.718Z,99484.25
2023-03-31T01:44:29.373Z,99477.16
2023-03-31T01:47:18.323Z,99471.41
2023-03-31T01:50:05.068Z,99470.75
2023-03-31T01:52:38.120Z,99473.47
2023-03-31T01:55:08.957Z,99470.84
2023-03-31T01:58:03.811Z,99461.78
2023-03-31T02:00:37.451Z,99462.78
2023-03-31T02:03:34.388Z,99450.91
2023-03-31T02:06:13.316Z,99442.00
2023-03-31T02:08:48.471Z,99427.22
2023-03-31T02:11:16.361Z,99423.91
2023-03-31T02:13:47.447Z,99411.84
2023-03-31T02:16:24.292Z,99417.88
2023-03-31T02:19:02.255Z,99403.38
2023-03-31T02:21:35.040Z,99391.41
2023-03-31T02:24:07.153Z,99387.00
2023-03-31T02:26:45.838Z,99387.38
2023-03-31T02:29:12.858Z,99367.50
2023-03-31T02:32:10.240Z,99362.53
2023-03-31T02:34:37.493Z,99357.44
2023-03-31T02:37:04.414Z,99349.22
2023-03-31T02:39:35.636Z,99341.13
2023-03-31T02:42:07.396Z,99325.28
2023-03-31T02:44:39.757Z,99317.13
2023-03-31T02:47:10.922Z,99323.97
2023-03-31T02:49:42.481Z,99312.53
2023-03-31T02:52:40.491Z,99302.38
2023-03-31T02:55:31.534Z,99294.91
2023-03-31T02:58:27.234Z,99280.31
2023-03-31T03:01:02.715Z,99270.63
2023-03-31T03:04:06.281Z,99268.81
2023-03-31T03:07:05.527Z,99265.31
2023-03-31T03:10:01.480Z,99262.63
2023-03-31T03:12:58.837Z,99247.16
2023-03-31T03:15:34.465Z,99242.38
2023-03-31T03:18:02.191Z,99236.09
2023-03-31T03:20:29.128Z,99229.97
2023-03-31T03:22:56.101Z,99233.41
2023-03-31T03:25:24.364Z,99226.31
2023-03-31T03:27:53.074Z,99198.25
2023-03-31T03:30:20.160Z,99202.91
2023-03-31T03:32:47.226Z,99189.91
2023-03-31T03:35:14.473Z,99178.34
2023-03-31T03:37:41.344Z,99171.41
2023-03-31T03:40:09.554Z,99155.88
2023-03-31T03:42:36.600Z,99151.56
2023-03-31T03:45:03.826Z,99154.63
2023-03-31T03:47:30.839Z,99167.75
2023-03-31T03:49:57.837Z,99175.22
2023-03-31T03:52:24.774Z,99178.84
2023-03-31T03:54:51.681Z,99182.34
2023-03-31T03:57:18.623Z,99191.59
2023-03-31T03:59:45.610Z,99191.97
2023-03-31T04:02:12.571Z,99190.28
2023-03-31T04:04:39.603Z,99192.00
2023-03-31T04:07:06.542Z,99180.22
2023-03-31T04:09:33.424Z,99182.81
2023-03-31T04:12:00.994Z,99175.47
2023-03-31T04:14:28.026Z,99167.31
2023-03-31T04:16:56.446Z,99164.59
2023-03-31T04:19:25.922Z,99156.91
2023-03-31T04:22:02.639Z,99142.88
2023-03-31T04:24:32.763Z,99146.47
2023-03-31T04:27:00.938Z,99139.28
2023-03-31T04:29:27.898Z,99131.00
2023-03-31T04:31:59.225Z,99137.56
2023-03-31T04:34:34.928Z,99151.19
2023-03-31T04:37:03.074Z,99150.75
2023-03-31T04:39:31.096Z,99142.13
2023-03-31T04:42:00.889Z,99134.75
2023-03-31T04:44:28.250Z,99148.72
2023-03-31T04:46:56.105Z,99143.19
2023-03-31T04:49:23.304Z,99156.09
2023-03-31T04:51:50.584Z,99147.91
2023-03-31T04:54:17.557Z,99154.00
2023-03-31T04:56:44.599Z,99163.69
2023-03-31T04:59:11.625Z,99162.53
2023-03-31T05:01:38.570Z,99153.00
2023-03-31T05:04:06.295Z,99139.59
2023-03-31T05:06:33.788Z,99129.56
2023-03-31T05:09:00.779Z,99137.66
2023-03-31T05:11:29.011Z,99125.78
2023-03-31T05:13:56.025Z,99109.44
2023-03-31T05:16:23.032Z,99106.28
2023-03-31T05:18:50.004Z,99095.59
2023-03-31T05:21:20.679Z,99091.91
2023-03-31T05:23:48.345Z,99072.44
2023-03-31T05:26:15.880Z,99067.41
2023-03-31T05:28:42.937Z,99062.81
2023-03-31T05:31:11.361Z,99062.91
2023-03-31T05:33:42.196Z,99061.63
2023-03-31T05:36:15.391Z,99058.31
2023-03-31T05:38:43.325Z,99047.50
2023-03-31T05:41:11.858Z,99030.13
2023-03-31T05:43:39.942Z,99016.22
2023-03-31T05:46:07.360Z,99014.16
2023-03-31T05:48:34.732Z,99009.59
2023-03-31T05:51:02.144Z,99011.19
2023-03-31T05:53:29.919Z,99009.06
2023-03-31T05:55:59.583Z,99016.00
2023-03-31T05:58:27.494Z,99007.94
2023-03-31T06:01:19.787Z,99017.78
2023-03-31T06:03:47.422Z,99018.78
2023-03-31T06:06:16.414Z,98994.06
2023-03-31T06:08:45.781Z,98985.72
2023-03-31T06:11:19.538Z,98986.53
2023-03-31T06:13:46.805Z,98982.09
2023-03-31T06:16:15.596Z,98983.81
2023-03-31T06:18:42.689Z,98976.56
2023-03-31T06:21:19.409Z,98941.31
2023-03-31T06:23:46.460Z,98911.63
2023-03-31T06:26:19.088Z,98931.16
2023-03-31T06:28:46.784Z,98943.47
2023-03-31T06:31:18.301Z,98949.66
2023-03-31T06:33:46.261Z,98948.50
2023-03-31T06:36:16.813Z,98931.53
2023-03-31T06:38:44.482Z,98944.53
2023-03-31T06:41:14.845Z,98944.81
2023-03-31T06:43:42.009Z,98924.28
2023-03-31T06:46:09.742Z,98932.16
2023-03-31T06:48:37.165Z,98922.91
2023-03-31T06:51:06.680Z,98924.88
2023-03-31T06:53:34.736Z,98931.16
2023-03-31T06:56:01.781Z,98930.06
2023-03-31T06:58:31.321Z,98928.38
2023-03-31T07:01:01.746Z,98943.91
2023-03-31T07:03:29.635Z,98941.81
2023-03-31T07:05:56.982Z,98948.41
2023-03-31T07:08:24.797Z,98940.91
2023-03-31T07:10:58.834Z,98948.16
2023-03-31T07:13:26.763Z,98944.66
2023-03-31T07:15:54.160Z,98941.31
2023-03-31T07:18:25.862Z,98950.44
2023-03-31T07:20:53.297Z,98951.38
2023-03-31T07:23:20.814Z,98958.28
2023-03-31T07:25:48.230Z,98951.88
2023-03-31T07:28:15.835Z,98944.16
2023-03-31T07:30:43.192Z,98942.97
2023-03-31T07:33:10.513Z,98955.75
2023-03-31T07:35:41.688Z,98955.97
2023-03-31T07:38:10.785Z,98954.09
2023-03-31T07:40:38.568Z,98941.81
2023-03-31T07:43:06.270Z,98939.72
2023-03-31T07:45:34.278Z,98946.50
2023-03-31T07:48:01.221Z,98948.47
2023-03-31T07:50:28.226Z,98950.69
2023-03-31T07:52:55.133Z,98956.03
2023-03-31T07:55:23.656Z,98938.25
2023-03-31T07:57:51.355Z,98949.88
2023-03-31T08:00:18.993Z,98950.50
2023-03-31T08:02:45.989Z,98951.91
2023-03-31T08:05:16.462Z,98937.75
2023-03-31T08:07:46.818Z,98936.69
2023-03-31T08:10:18.654Z,98940.78
2023-03-31T08:12:45.720Z,98916.91
2023-03-31T08:15:13.015Z,98917.41
2023-03-31T08:17:41.051Z,98924.69
2023-03-31T08:20:10.465Z,98916.66
2023-03-31T08:22:39.141Z,98913.69
2023-03-31T08:25:08.342Z,98909.34
2023-03-31T08:27:37.909Z,98919.25
2023-03-31T08:30:07.904Z,98912.41
2023-03-31T08:32:35.971Z,98902.25
2023-03-31T08:35:03.568Z,98907.56
2023-03-31T08:37:31.541Z,98907.19
2023-03-31T08:39:58.713Z,98909.22
2023-03-31T08:42:49.219Z,98895.38
2023-03-31T08:45:18.922Z,98898.41
2023-03-31T08:47:48.219Z,98887.78
2023-03-31T08:50:24.998Z,98891.75
2023-03-31T08:53:35.029Z,98875.81
2023-03-31T08:56:08.781Z,98871.03
2023-03-31T08:58:49.318Z,98871.84
2023-03-31T09:01:56.854Z,98863.94
2023-03-31T09:04:32.727Z,98844.84
2023-03-31T09:07:37.035Z,98868.22
2023-03-31T09:10:13.163Z,98853.94
2023-03-31T09:13:21.891Z,98851.13
2023-03-31T09:15:58.638Z,98826.72
2023-03-31T09:18:37.880Z,98817.03
2023-03-31T09:21:34.318Z,98785.16
2023-03-31T09:24:23.671Z,98771.50
2023-03-31T09:26:57.486Z,98773.72
2023-03-31T09:29:45.823Z,98780.56
2023-03-31T09:32:20.362Z,98762.06
2023-03-31T09:34:53.980Z,98762.91
2023-03-31T09:37:21.038Z,98747.56
2023-03-31T09:39:47.962Z,98753.84
2023-03-31T09:42:15.150Z,98752.28
2023-03-31T09:44:46.829Z,98753.84
2023-03-31T09:47:32.176Z,98761.44
2023-03-31T09:49:59.532Z,98751.13
2023-03-31T09:52:31.990Z,98735.59
2023-03-31T09:55:03.254Z,98735.34
2023-03-31T09:57:39.801Z,98738.19
2023-03-31T10:00:17.802Z,98731.16
2023-03-31T10:02:57.707Z,98719.81
2023-03-31T10:05:28.467Z,98712.25
2023-03-31T10:08:39.702Z,98712.47
2023-03-31T10:11:10.100Z,98709.63
2023-03-31T10:14:13.584Z,98704.53
2023-03-31T10:16:47.868Z,98723.09
2023-03-31T10:19:27.934Z,98742.66
2023-03-31T10:22:09.734Z,98770.88
2023-03-31T10:24:44.962Z,98802.09
2023-03-31T10:27:28.896Z,98838.69
2023-03-31T10:29:59.705Z,98862.50
2023-03-31T10:32:31.876Z,98866.19
2023-03-31T10:35:06.376Z,98874.31
2023-03-31T10:37:36.438Z,98892.06
2023-03-31T10:40:15.547Z,98891.06
2023-03-31T10:42:47.833Z,98866.25
2023-03-31T10:45:36.595Z,98821.13
2023-03-31T10:48:09.539Z,98796.66
2023-03-31T10:50:37.007Z,98789.56
2023-03-31T10:53:14.207Z,98798.50
2023-03-31T10:56:19.716Z,98800.84
2023-03-31T10:59:05.727Z,98798.31
2023-03-31T11:02:03.717Z,98798.56
2023-03-31T11:04:55.979Z,98792.81
2023-03-31T11:07:49.606Z,98796.88
2023-03-31T11:10:34.985Z,98785.78
2023-03-31T11:13:25.667Z,98779.13
2023-03-31T11:16:02.970Z,98772.72
2023-03-31T11:18:50.779Z,98782.16
2023-03-31T11:21:43.453Z,98775.94
2023-03-31T11:25:00.492Z,98762.91
2023-03-31T11:28:07.286Z,98756.66
2023-03-31T11:30:57.395Z,98781.78
2023-03-31T11:33:44.094Z,98766.47
2023-03-31T11:36:26.163Z,98766.91
2023-03-31T11:39:29.445Z,98767.28
2023-03-31T11:42:04.461Z,98765.25
2023-03-31T11:44:47.061Z,98764.09
2023-03-31T11:47:19.967Z,98759.06
2023-03-31T11:49:55.740Z,98770.72
2023-03-31T11:52:30.028Z,98758.03
2023-03-31T11:55:04.891Z,98769.25
2023-03-31T11:58:01.072Z,98765.06
2023-03-31T12:00:41.274Z,98757.22
2023-03-31T12:03:21.701Z,98754.19
2023-03-31T12:06:02.808Z,98769.28
2023-03-31T12:08:51.301Z,98745.56
2023-03-31T12:12:04.376Z,98749.34
2023-03-31T12:14:41.592Z,98777.31
2023-03-31T12:17:14.718Z,98743.38
2023-03-31T12:19:58.509Z,98756.63
2023-03-31T12:22:34.510Z,98732.34
2023-03-31T12:25:02.736Z,98736.31
2023-03-31T12:27:42.866Z,98737.94
2023-03-31T12:30:42.775Z,98715.41
2023-03-31T12:33:21.812Z,98729.31
2023-03-31T12:36:46.181Z,98724.69
2023-03-31T12:39:51.530Z,98709.25
2023-03-31T12:42:48.634Z,98723.09
2023-03-31T12:45:36.069Z,98726.31
2023-03-31T12:48:52.821Z,98726.50
2023-03-31T12:51:30.386Z,98729.94
2023-03-31T12:54:18.400Z,98734.34
2023-03-31T12:57:03.189Z,98724.28
2023-03-31T12:59:36.857Z,98732.31
2023-03-31T13:02:10.129Z,98714.44
2023-03-31T13:04:38.818Z,98721.28
2023-03-31T13:07:33.908Z,98707.22
2023-03-31T13:10:19.343Z,98694.97
2023-03-31T13:13:04.807Z,98719.47
2023-03-31T13:15:33.074Z,98730.72
2023-03-31T13:18:06.602Z,98726.88
2023-03-31T13:20:40.438Z,98729.50
2023-03-31T13:23:26.062Z,98727.69
2023-03-31T13:25:58.397Z,98735.28
2023-03-31T13:28:47.040Z,98729.03
2023-03-31T13:31:15.206Z,98757.72
2023-03-31T13:34:01.768Z,98737.31
2023-03-31T13:36:54.223Z,98731.13
2023-03-31T13:40:06.842Z,98731.47
2023-03-31T13:43:10.927Z,98721.34
2023-03-31T13:46:23.480Z,98713.78
2023-03-31T13:49:15.024Z,98719.97
2023-03-31T13:51:57.891Z,98715.78
2023-03-31T13:54:48.952Z,98725.97
2023-03-31T13:57:46.675Z,98716.94
2023-03-31T14:00:48.713Z,98709.94
2023-03-31T14:03:52.461Z,98699.84
2023-03-31T14:06:28.341Z,98695.50
2023-03-31T14:09:06.405Z,98721.50
2023-03-31T14:11:33.896Z,98729.94
2023-03-31T14:14:18.975Z,98742.06
2023-03-31T14:16:46.037Z,98742.19
2023-03-31T14:19:43.882Z,98740.97
2023-03-31T14:22:38.176Z,98743.19
2023-03-31T14:25:20.046Z,98729.22
2023-03-31T14:27:53.838Z,98727.00
2023-03-31T14:30:35.515Z,98712.59
2023-03-31T14:33:59.439Z,98688.38
2023-03-31T14:36:29.482Z,98669.53
2023-03-31T14:39:03.984Z,98661.13
2023-03-31T14:41:31.166Z,98664.00
2023-03-31T14:44:01.972Z,98649.56
2023-03-31T14:46:35.528Z,98635.91
2023-03-31T14:49:19.884Z,98623.84
2023-03-31T14:51:46.979Z,98622.19
2023-03-31T14:54:20.491Z,98608.91
2023-03-31T14:56:53.682Z,98598.50
2023-03-31T14:59:29.420Z,98609.69
2023-03-31T15:02:02.743Z,98614.53
2023-03-31T15:04:42.131Z,98610.53
2023-03-31T15:07:10.870Z,98621.16
2023-03-31T15:09:39.484Z,98625.81
2023-03-31T15:12:15.168Z,98639.91
2023-03-31T15:15:06.852Z,98645.91
2023-03-31T15:17:41.395Z,98627.34
2023-03-31T15:20:38.625Z,98649.94
2023-03-31T15:23:27.600Z,98651.13
2023-03-31T15:26:19.194Z,98655.97
2023-03-31T15:28:56.992Z,98661.81
2023-03-31T15:31:27.146Z,98658.38
2023-03-31T15:33:54.534Z,98663.00
2023-03-31T15:36:22.810Z,98690.13
2023-03-31T15:38:59.116Z,98671.66
2023-03-31T15:41:31.554Z,98689.72
2023-03-31T15:44:37.858Z,98688.53
2023-03-31T15:47:21.302Z,98687.72
2023-03-31T15:49:58.941Z,98703.41
2023-03-31T15:52:36.954Z,98705.81
2023-03-31T15:55:25.403Z,98717.44
2023-03-31T15:57:54.232Z,98725.50
2023-03-31T16:00:41.080Z,98725.50
2023-03-31T16:03:44.582Z,98734.91
2023-03-31T16:06:37.024Z,98732.59
2023-03-31T16:09:39.007Z,98711.38
2023-03-31T16:12:16.197Z,98712.31
2023-03-31T16:14:52.736Z,98722.16
2023-03-31T16:17:30.962Z,98702.19
2023-03-31T16:20:11.057Z,98698.09
2023-03-31T16:22:45.380Z,98678.50
2023-03-31T16:25:17.110Z,98690.41
2023-03-31T16:27:49.393Z,98707.59
2023-03-31T16:30:21.105Z,98722.41
2023-03-31T16:33:02.194Z,98754.34
2023-03-31T16:35:41.704Z,98742.91
2023-03-31T16:38:11.383Z,98728.31
2023-03-31T16:40:41.534Z,98721.38
2023-03-31T16:43:17.351Z,98716.47
2023-03-31T16:45:53.855Z,98750.81
2023-03-31T16:48:24.679Z,98720.00
2023-03-31T16:50:57.824Z,98751.44
2023-03-31T16:53:31.452Z,98768.91
2023-03-31T16:55:58.656Z,98779.44
2023-03-31T16:58:28.962Z,98776.75
2023-03-31T17:00:58.174Z,98744.56
2023-03-31T17:03:26.082Z,98722.00
2023-03-31T17:05:58.473Z,98727.28
2023-03-31T17:08:27.651Z,98744.31
2023-03-31T17:11:01.303Z,98734.03
2023-03-31T17:13:28.389Z,98725.22
2023-03-31T17:16:01.482Z,98715.44
2023-03-31T17:18:40.393Z,98706.34
2023-03-31T17:21:10.744Z,98692.63
2023-03-31T17:23:39.330Z,98699.59
2023-03-31T17:26:10.606Z,98691.84
2023-03-31T17:28:37.735Z,98712.34
2023-03-31T17:31:11.966Z,98711.38
2023-03-31T17:33:40.623Z,98731.19
2023-03-31T17:36:08.510Z,98728.75
2023-03-31T17:38:35.715Z,98733.03
2023-03-31T17:41:04.670Z,98737.56
2023-03-31T17:43:31.748Z,98757.19
2023-03-31T17:46:09.928Z,98774.16
2023-03-31T17:48:39.148Z,98767.88
2023-03-31T17:51:16.326Z,98770.50
2023-03-31T17:53:46.092Z,98778.47
2023-03-31T17:56:14.708Z,98778.03
2023-03-31T17:58:41.729Z,98774.06
2023-03-31T18:01:11.858Z,98788.06
2023-03-31T18:03:39.178Z,98790.47
2023-03-31T18:06:13.261Z,98798.03
2023-03-31T18:08:41.625Z,98805.19
2023-03-31T18:11:09.909Z,98806.69
2023-03-31T18:13:37.670Z,98806.34
2023-03-31T18:16:08.633Z,98808.75
2023-03-31T18:18:36.985Z,98809.41
2023-03-31T18:21:10.436Z,98813.34
2023-03-31T18:23:38.273Z,98819.78
2023-03-31T18:26:13.142Z,98821.56
2023-03-31T18:28:40.865Z,98819.16
2023-03-31T18:31:08.904Z,98812.63
2023-03-31T18:33:36.520Z,98815.13
2023-03-31T18:36:03.919Z,98812.16
2023-03-31T18:38:31.360Z,98811.47
2023-03-31T18:40:58.277Z,98813.50
2023-03-31T18:43:26.387Z,98813.78
2023-03-31T18:45:55.476Z,98815.50
2023-03-31T18:48:23.378Z,98814.75
2023-03-31T18:50:51.962Z,98821.25
2023-03-31T18:53:20.785Z,98851.00
2023-03-31T18:55:52.467Z,98864.34
2023-03-31T18:58:19.658Z,98843.91
2023-03-31T19:00:46.634Z,98827.69
2023-03-31T19:03:13.972Z,98858.69
2023-03-31T19:05:41.003Z,98871.91
2023-03-31T19:08:08.362Z,98822.44
2023-03-31T19:10:36.499Z,98814.75
2023-03-31T19:13:04.060Z,98809.44
2023-03-31T19:15:31.270Z,98811.72
2023-03-31T19:17:58.370Z,98790.25
2023-03-31T19:20:25.560Z,98785.84
2023-03-31T19:22:52.729Z,98803.69
2023-03-31T19:25:20.719Z,98808.78
2023-03-31T19:27:48.349Z,98823.84
2023-03-31T19:30:24.964Z,98822.41
2023-03-31T19:32:52.130Z,98836.03
2023-03-31T19:35:20.392Z,98836.47
2023-03-31T19:37:48.074Z,98841.41
2023-03-31T19:40:15.421Z,98830.63
2023-03-31T19:42:44.175Z,98833.81
2023-03-31T19:45:11.534Z,98835.13
2023-03-31T19:47:38.733Z,98844.19
2023-03-31T19:50:07.325Z,98838.44
2023-03-31T19:52:35.341Z,98842.72
2023-03-31T19:55:02.644Z,98845.50
2023-03-31T19:57:29.723Z,98845.94
2023-03-31T19:59:56.841Z,98834.84
2023-03-31T20:02:24.078Z,98849.41
2023-03-31T20:04:51.657Z,98846.06
2023-03-31T20:07:18.891Z,98850.44
2023-03-31T20:09:46.063Z,98848.03
2023-03-31T20:12:13.213Z,98848.28
2023-03-31T20:14:40.259Z,98849.03
2023-03-31T20:17:07.566Z,98853.69
2023-03-31T20:19:35.060Z,98845.06
2023-03-31T20:22:02.118Z,98843.72
2023-03-31T20:24:29.498Z,98833.94
2023-03-31T20:26:56.892Z,98835.38
2023-03-31T20:29:24.757Z,98838.97
2023-03-31T20:31:51.916Z,98841.22
2023-03-31T20:34:22.232Z,98832.81
2023-03-31T20:36:51.417Z,98833.78
2023-03-31T20:39:19.961Z,98841.41
2023-03-31T20:41:47.366Z,98837.47
2023-03-31T20:44:15.753Z,98834.31
2023-03-31T20:46:44.032Z,98839.06
2023-03-31T20:49:11.475Z,98839.88
2023-03-31T20:51:39.010Z,98832.63
2023-03-31T20:54:07.716Z,98837.66
2023-03-31T20:56:38.342Z,98839.44
2023-03-31T20:59:09.135Z,98838.25
2023-03-31T21:01:37.353Z,98844.44
2023-03-31T21:04:07.483Z,98846.91
2023-03-31T21:06:41.017Z,98845.50
2023-03-31T21:09:08.902Z,98843.34
2023-03-31T21:11:35.876Z,98838.34
2023-03-31T21:14:03.156Z,98837.25
2023-03-31T21:16:30.109Z,98855.03
2023-03-31T21:18:58.620Z,98840.13
2023-03-31T21:21:27.518Z,98839.06
2023-03-31T21:23:54.989Z,98841.22
2023-03-31T21:26:22.911Z,98840.94
2023-03-31T21:28:55.359Z,98844.53
2023-03-31T21:31:24.915Z,98851.25
2023-03-31T21:33:53.418Z,98846.84
2023-03-31T21:36:22.687Z,98855.41
2023-03-31T21:38:54.638Z,98846.84
2023-03-31T21:41:30.740Z,98852.97
2023-03-31T21:44:00.507Z,98850.88
2023-03-31T21:46:30.972Z,98849.38
2023-03-31T21:48:57.973Z,98856.09
2023-03-31T21:51:25.977Z,98849.63
2023-03-31T21:53:55.419Z,98854.94
2023-03-31T21:56:25.072Z,98853.59
2023-03-31T21:58:52.416Z,98856.63
2023-03-31T22:01:19.815Z,98848.47
2023-03-31T22:03:47.288Z,98851.81
2023-03-31T22:06:14.234Z,98853.16
2023-03-31T22:08:41.802Z,98860.25
2023-03-31T22:11:12.244Z,98867.06
2023-03-31T22:13:39.263Z,98869.31
2023-03-31T22:16:21.753Z,98861.63
2023-03-31T22:18:50.445Z,98864.13
2023-03-31T22:21:27.098Z,98868.88
2023-03-31T22:23:57.964Z,98865.09
2023-03-31T22:26:27.214Z,98867.19
2023-03-31T22:28:55.108Z,98876.31
2023-03-31T22:31:22.615Z,98873.66
2023-03-31T22:33:49.791Z,98876.81
2023-03-31T22:36:16.724Z,98872.59
2023-03-31T22:38:44.119Z,98871.34
2023-03-31T22:41:11.116Z,98874.75
2023-03-31T22:43:38.332Z,98887.03
2023-03-31T22:46:07.440Z,98883.06
2023-03-31T22:48:34.817Z,98888.22
2023-03-31T22:51:11.868Z,98882.44
2023-03-31T22:53:38.834Z,98890.94
2023-03-31T22:56:10.012Z,98891.63
2023-03-31T22:58:37.629Z,98884.25
2023-03-31T23:01:06.754Z,98896.44
2023-03-31T23:03:33.840Z,98896.34
2023-03-31T23:06:05.732Z,98888.72
2023-03-31T23:08:35.520Z,98897.81
2023-03-31T23:11:05.173Z,98899.22
2023-03-31T23:13:32.529Z,98886.41
2023-03-31T23:16:13.207Z,98886.09
2023-03-31T23:18:44.314Z,98892.56
2023-03-31T23:21:12.199Z,98895.44
2023-03-31T23:23:39.408Z,98890.63
2023-03-31T23:26:06.932Z,98890.09
2023-03-31T23:28:36.640Z,98885.22
2023-03-31T23:31:03.911Z,98890.03
2023-03-31T23:33:30.994Z,98881.47
2023-03-31T23:36:04.571Z,98889.44
2023-03-31T23:38:32.471Z,98882.16
2023-03-31T23:41:00.818Z,98885.41
2023-03-31T23:43:28.750Z,98888.19
2023-03-31T23:45:56.458Z,98882.72
2023-03-31T23:48:23.577Z,98883.25
2023-03-31T23:50:50.979Z,98884.88
2023-03-31T23:53:17.937Z,98882.63
2023-03-31T23:55:57.888Z,98886.31
2023-03-31T23:58:26.218Z,98876.88
